Time;durP1;ratioP1;P1;durP2;ratioP2;P2;SDS_P1;SDS_P2;PMS_P1;PMS_P2;Temp;Humidity;BMP_temperature;BMP_pressure;BME280_temperature;BME280_humidity;BME280_pressure;Samples;Min_cycle;Max_cycle;Signal;HPM_P1;HPM_P2
2022/07/19 00:03:17;;;;;;;7.82;4.03;;;;;;;21.51;46.86;101773.69;10439906;28;20056;-73
2022/07/19 00:08:17;;;;;;;4.82;4.43;;;;;;;21.40;47.09;101766.31;10456983;28;20039;-73
2022/07/19 00:13:18;;;;;;;3.97;3.58;;;;;;;21.21;46.70;101764.84;10457967;28;20032;-72
2022/07/19 00:18:18;;;;;;;5.88;4.78;;;;;;;21.08;46.58;101771.50;10423513;28;20033;-73
2022/07/19 00:23:19;;;;;;;6.70;4.68;;;;;;;21.00;46.74;101763.63;10456426;28;20497;-73
2022/07/19 00:28:19;;;;;;;6.63;5.10;;;;;;;21.01;46.89;101760.63;10457514;28;20041;-73
2022/07/19 00:33:20;;;;;;;7.93;5.50;;;;;;;20.98;47.15;101761.13;10456837;28;20075;-73
2022/07/19 00:38:20;;;;;;;7.93;5.82;;;;;;;20.94;47.37;101759.94;10440896;28;20108;-73
2022/07/19 00:43:21;;;;;;;4.40;3.97;;;;;;;20.94;48.51;101759.13;10456037;28;20033;-73
2022/07/19 00:48:22;;;;;;;5.75;4.75;;;;;;;20.96;48.17;101759.69;10440294;28;20033;-73
2022/07/19 00:53:22;;;;;;;9.95;5.07;;;;;;;20.95;49.52;101760.78;10438393;28;20043;-73
2022/07/19 00:58:23;;;;;;;9.20;4.35;;;;;;;20.95;48.66;101758.03;10409843;28;20096;-73
2022/07/19 01:03:25;;;;;;;6.00;3.67;;;;;;;20.92;48.64;101758.50;10415405;28;20124;-72
2022/07/19 01:08:25;;;;;;;7.00;4.03;;;;;;;20.93;48.96;101750.03;10399693;28;20032;-73
2022/07/19 01:13:27;;;;;;;7.57;4.25;;;;;;;20.86;49.35;101758.41;10423223;28;20116;-73
2022/07/19 01:18:28;;;;;;;4.22;3.67;;;;;;;20.72;49.77;101757.03;10422967;28;20041;-73
2022/07/19 01:23:28;;;;;;;4.63;4.22;;;;;;;20.57;50.34;101752.03;10388692;28;20044;-73
2022/07/19 01:28:29;;;;;;;10.13;3.97;;;;;;;20.41;50.88;101752.78;10423977;28;20038;-73
2022/07/19 01:33:30;;;;;;;4.40;4.05;;;;;;;20.35;50.88;101745.47;10424718;28;20128;-73
2022/07/19 01:38:30;;;;;;;5.20;4.32;;;;;;;20.26;51.07;101739.53;10422892;28;20036;-73
2022/07/19 01:43:31;;;;;;;11.57;4.85;;;;;;;20.30;51.42;101739.88;10406409;28;20038;-72
2022/07/19 01:48:31;;;;;;;6.05;4.72;;;;;;;20.31;52.13;101738.81;10422583;28;20128;-73
2022/07/19 01:53:32;;;;;;;7.75;5.32;;;;;;;20.36;54.37;101734.25;10421665;28;20037;-73
2022/07/19 01:58:34;;;;;;;5.65;5.05;;;;;;;20.37;52.75;101729.59;10421288;28;20132;-73
2022/07/19 02:03:34;;;;;;;9.23;5.45;;;;;;;20.31;53.25;101736.88;10404512;28;20040;-73
2022/07/19 02:08:35;;;;;;;6.05;4.93;;;;;;;20.31;53.41;101734.13;10421660;28;20041;-73
2022/07/19 02:13:35;;;;;;;8.98;5.25;;;;;;;20.28;54.37;101736.53;10387984;28;20091;-72
2022/07/19 02:18:36;;;;;;;12.10;5.70;;;;;;;20.21;55.70;101723.75;10403474;28;20120;-73
2022/07/19 02:23:36;;;;;;;7.20;4.93;;;;;;;20.19;55.18;101731.38;10420825;28;20113;-73
2022/07/19 02:28:37;;;;;;;6.18;5.45;;;;;;;20.17;55.76;101719.81;10388088;28;20064;-73
2022/07/19 02:33:38;;;;;;;11.85;4.47;;;;;;;20.16;56.36;101715.38;10404084;28;20393;-73
2022/07/19 02:38:39;;;;;;;10.05;6.05;;;;;;;20.12;55.77;101719.69;10419606;28;20061;-73
2022/07/19 02:43:48;;;;;;;5.93;5.38;;;;;;;20.07;55.43;101716.84;10403186;28;20050;-73
2022/07/19 02:48:57;;;;;;;10.25;6.47;;;;;;;20.09;55.55;101733.91;10421555;28;20488;-73
2022/07/19 02:53:57;;;;;;;8.88;5.97;;;;;;;20.12;56.39;101725.19;10420263;28;20388;-73
2022/07/19 02:58:58;;;;;;;12.10;4.95;;;;;;;20.17;58.14;101713.50;10395556;28;20140;-73
2022/07/19 03:03:59;;;;;;;9.15;5.25;;;;;;;20.16;57.08;101711.78;10435907;28;20026;-73
2022/07/19 03:09:02;;;;;;;7.60;6.55;;;;;;;20.12;56.46;101705.13;10420389;28;20040;-73
2022/07/19 03:14:04;;;;;;;7.68;5.72;;;;;;;20.11;57.39;101704.28;10419202;28;20397;-73
2022/07/19 03:19:08;;;;;;;10.15;6.30;;;;;;;20.12;57.21;101708.69;10420151;28;20029;-73
2022/07/19 03:24:08;;;;;;;7.75;5.97;;;;;;;20.04;58.54;101703.59;10418858;28;20034;-73
2022/07/19 03:29:09;;;;;;;5.95;5.15;;;;;;;20.00;57.39;101699.63;10416892;28;20481;-72
2022/07/19 03:34:10;;;;;;;9.10;6.45;;;;;;;20.00;58.79;101707.88;10417533;28;20026;-73
2022/07/19 03:39:10;;;;;;;10.00;7.63;;;;;;;20.05;58.23;101708.00;10419144;28;20361;-72
2022/07/19 03:44:11;;;;;;;7.13;6.43;;;;;;;20.07;59.78;101703.09;10417151;28;20041;-72
2022/07/19 03:49:12;;;;;;;11.52;8.68;;;;;;;20.06;58.31;101697.81;10417852;28;20045;-73
2022/07/19 03:54:12;;;;;;;11.77;7.43;;;;;;;20.06;58.25;101706.91;10417989;28;20033;-73
2022/07/19 03:59:13;;;;;;;9.68;8.00;;;;;;;20.11;59.34;101703.44;10393089;28;20060;-73
2022/07/19 04:04:17;;;;;;;9.65;7.18;;;;;;;20.16;60.23;101703.53;10463775;28;20069;-72
2022/07/19 04:09:18;;;;;;;8.25;7.35;;;;;;;20.24;62.56;101705.09;10459816;28;20452;-73
2022/07/19 04:14:18;;;;;;;8.15;7.22;;;;;;;20.28;62.03;101709.03;10440823;28;20025;-73
2022/07/19 04:19:19;;;;;;;19.70;9.20;;;;;;;20.37;61.78;101715.81;10439588;28;20037;-72
2022/07/19 04:24:20;;;;;;;13.57;8.60;;;;;;;20.38;61.64;101707.31;10440002;28;20045;-73
2022/07/19 04:29:22;;;;;;;12.38;8.73;;;;;;;20.44;64.67;101711.84;10456752;28;20029;-73
2022/07/19 04:34:22;;;;;;;8.77;7.72;;;;;;;20.58;61.18;101709.69;10422997;28;20408;-73
2022/07/19 04:39:23;;;;;;;11.80;8.98;;;;;;;20.74;63.87;101708.09;10440071;28;20135;-71
2022/07/19 04:44:24;;;;;;;10.65;8.18;;;;;;;20.88;62.11;101703.94;10438960;28;20120;-72
2022/07/19 04:49:25;;;;;;;16.77;10.50;;;;;;;21.04;63.99;101702.31;10457032;28;20075;-72
2022/07/19 04:54:25;;;;;;;9.10;7.95;;;;;;;21.23;61.26;101691.06;10442319;28;20476;-72
2022/07/19 04:59:26;;;;;;;9.50;7.78;;;;;;;21.80;59.70;101686.22;10450694;28;20071;-72
2022/07/19 05:04:27;;;;;;;13.80;8.73;;;;;;;22.47;60.62;101682.44;10397277;28;20112;-73
2022/07/19 05:09:28;;;;;;;9.35;8.23;;;;;;;22.93;61.33;101696.75;10239727;28;26019;-72
2022/07/19 05:14:29;;;;;;;9.38;7.22;;;;;;;23.38;60.27;101691.91;10382070;28;20041;-72
2022/07/19 05:19:37;;;;;;;15.30;8.95;;;;;;;23.75;59.60;101686.41;10397729;28;20121;-75
2022/07/19 05:24:38;;;;;;;17.30;9.73;;;;;;;24.07;58.98;101693.78;10398060;28;20381;-77
2022/07/19 05:29:38;;;;;;;12.57;9.13;;;;;;;24.49;57.27;101695.66;10413936;28;20038;-78
2022/07/19 05:34:38;;;;;;;11.37;8.07;;;;;;;24.79;55.93;101700.44;10415400;28;20065;-78
2022/07/19 05:39:40;;;;;;;10.50;9.43;;;;;;;25.22;55.08;101699.16;10415113;28;20346;-78
2022/07/19 05:44:41;;;;;;;8.30;7.53;;;;;;;25.66;54.57;101684.69;10414483;28;20033;-78
2022/07/19 05:49:41;;;;;;;11.32;8.90;;;;;;;26.13;53.79;101690.97;10412726;28;20420;-78
2022/07/19 05:54:42;;;;;;;11.13;8.13;;;;;;;26.43;52.73;101684.47;10416662;28;20037;-78
2022/07/19 05:59:42;;;;;;;13.33;7.70;;;;;;;26.86;51.79;101684.81;10421892;28;20065;-79
2022/07/19 06:04:42;;;;;;;15.80;9.10;;;;;;;27.19;50.37;101682.38;10421507;28;20266;-79
2022/07/19 06:09:43;;;;;;;10.90;8.57;;;;;;;27.53;49.37;101688.72;10404742;28;20323;-79
2022/07/19 06:14:43;;;;;;;19.08;9.82;;;;;;;27.88;47.88;101678.38;10422462;28;20041;-79
2022/07/19 06:19:43;;;;;;;11.88;7.78;;;;;;;28.33;47.05;101673.38;10420746;28;20599;-79
2022/07/19 06:24:44;;;;;;;10.15;8.20;;;;;;;28.69;46.52;101690.50;10420779;28;20092;-79
2022/07/19 06:29:44;;;;;;;11.53;8.80;;;;;;;29.16;45.45;101682.25;10420019;28;20033;-79
2022/07/19 06:34:45;;;;;;;10.27;6.30;;;;;;;29.50;44.43;101686.72;10402570;28;20762;-79
2022/07/19 06:39:45;;;;;;;10.90;7.90;;;;;;;29.79;43.05;101690.09;10403758;28;20618;-79
2022/07/19 06:44:45;;;;;;;12.25;7.43;;;;;;;29.94;42.63;101685.34;10419942;28;20037;-79
2022/07/19 06:49:46;;;;;;;8.38;6.95;;;;;;;30.55;42.73;101679.31;10419585;28;20038;-79
2022/07/19 06:54:47;;;;;;;8.80;7.97;;;;;;;30.76;38.90;101665.72;10418519;28;20576;-79
2022/07/19 06:59:47;;;;;;;7.60;6.53;;;;;;;30.90;39.86;101665.66;10420437;28;20054;-80
2022/07/19 07:04:47;;;;;;;13.32;6.45;;;;;;;31.36;38.03;101658.13;10402020;28;20034;-80
2022/07/19 07:09:48;;;;;;;9.07;5.73;;;;;;;31.86;39.37;101657.88;10418477;28;20492;-80
2022/07/19 07:14:48;;;;;;;14.30;6.57;;;;;;;32.30;36.42;101647.66;10421893;28;20263;-80
2022/07/19 07:19:49;;;;;;;6.80;5.75;;;;;;;32.64;37.39;101649.66;10417916;28;20278;-80
2022/07/19 07:24:49;;;;;;;9.65;5.78;;;;;;;33.06;35.81;101644.41;10419465;28;20112;-79
2022/07/19 07:29:49;;;;;;;12.15;5.93;;;;;;;33.49;35.42;101649.09;10420209;28;20068;-80
2022/07/19 07:34:50;;;;;;;8.13;5.70;;;;;;;33.55;33.14;101645.78;10420023;28;20120;-81
2022/07/19 07:39:51;;;;;;;17.98;5.25;;;;;;;33.83;34.67;101636.09;10418011;28;20037;-80
2022/07/19 07:44:52;;;;;;;17.55;7.07;;;;;;;34.40;33.67;101633.63;10418026;28;20033;-80
2022/07/19 07:49:52;;;;;;;7.78;5.75;;;;;;;34.48;31.06;101640.34;10402176;28;20037;-80
2022/07/19 07:54:55;;;;;;;4.55;4.13;;;;;;;34.75;29.77;101641.81;10420216;28;20397;-79
2022/07/19 07:59:57;;;;;;;7.65;4.90;;;;;;;34.86;29.76;101636.56;10419304;28;20057;-80
2022/07/19 08:04:59;;;;;;;4.47;4.07;;;;;;;35.30;29.84;101637.00;10402502;28;20033;-80
2022/07/19 08:10:01;;;;;;;4.53;4.13;;;;;;;35.16;28.90;101623.22;10418194;28;20038;-80
2022/07/19 08:15:01;;;;;;;12.45;5.85;;;;;;;35.38;29.66;101619.97;10399720;28;20036;-80
2022/07/19 08:20:02;;;;;;;9.80;4.35;;;;;;;35.86;28.29;101615.56;10415995;28;20034;-80
2022/07/19 08:25:02;;;;;;;5.55;4.97;;;;;;;35.78;28.18;101613.72;10418198;28;20429;-80
2022/07/19 08:30:04;;;;;;;6.40;4.63;;;;;;;36.01;28.31;101613.22;10416528;28;20064;-79
2022/07/19 08:35:06;;;;;;;5.53;4.43;;;;;;;36.21;28.44;101612.28;10400094;28;20492;-80
2022/07/19 08:40:07;;;;;;;10.32;3.65;;;;;;;36.23;26.96;101623.22;10399296;28;20112;-80
2022/07/19 08:45:08;;;;;;;5.95;3.95;;;;;;;36.36;26.82;101613.53;10416362;28;20038;-80
2022/07/19 08:50:09;;;;;;;9.57;3.53;;;;;;;36.85;25.82;101604.09;10400039;28;20038;-80
2022/07/19 08:55:10;;;;;;;9.55;4.03;;;;;;;36.91;26.32;101609.13;10420408;28;20041;-80
2022/07/19 09:00:12;;;;;;;3.67;3.38;;;;;;;37.10;25.00;101611.28;10419822;28;20049;-81
2022/07/19 09:05:12;;;;;;;3.35;3.10;;;;;;;37.14;25.03;101603.75;10420277;28;20029;-80
2022/07/19 09:10:20;;;;;;;6.70;5.05;;;;;;;37.53;26.21;101608.81;10401482;28;20385;-81
2022/07/19 09:15:21;;;;;;;5.65;3.72;;;;;;;38.14;24.76;101597.78;10423167;28;20041;-79
2022/07/19 09:20:27;;;;;;;6.88;3.05;;;;;;;38.49;23.65;101591.28;10421409;28;20034;-79
2022/07/19 09:25:38;;;;;;;4.18;3.42;;;;;;;38.54;23.33;101582.47;10401922;28;20045;-81
2022/07/19 09:30:43;;;;;;;6.90;3.78;;;;;;;38.46;24.76;101579.91;10422660;28;20112;-80
2022/07/19 09:35:52;;;;;;;4.28;3.60;;;;;;;38.84;23.38;101567.75;10424341;28;20084;-80
2022/07/19 09:40:54;;;;;;;5.72;3.22;;;;;;;39.53;22.59;101567.75;10412748;28;20029;-80
2022/07/19 09:45:55;;;;;;;3.05;2.70;;;;;;;39.73;21.65;101562.84;10426731;28;20468;-81
2022/07/19 09:50:55;;;;;;;4.37;2.07;;;;;;;39.89;20.33;101562.69;10409637;28;20049;-81
2022/07/19 09:55:55;;;;;;;3.00;2.80;;;;;;;40.06;21.83;101558.47;10410763;28;20259;-81
2022/07/19 10:00:56;;;;;;;5.57;2.80;;;;;;;40.13;21.17;101555.72;10411820;28;20746;-81
2022/07/19 10:05:56;;;;;;;4.50;2.43;;;;;;;40.07;21.26;101565.75;10426677;28;20313;-81
2022/07/19 10:10:57;;;;;;;6.20;2.73;;;;;;;40.16;21.97;101535.09;10428067;28;20251;-81
2022/07/19 10:15:57;;;;;;;8.30;2.93;;;;;;;40.67;20.34;101540.19;10413541;28;20293;-80
2022/07/19 10:21:00;;;;;;;2.80;2.60;;;;;;;40.70;20.84;101528.06;10410487;28;20290;-80
2022/07/19 10:26:00;;;;;;;5.47;3.67;;;;;;;41.27;22.17;101530.66;10427269;28;20033;-81
2022/07/19 10:31:01;;;;;;;4.50;2.70;;;;;;;41.56;20.28;101520.34;10422098;28;20037;-81
2022/07/19 10:36:36;;;;;;;2.63;2.42;;;;;;;41.68;21.22;101522.84;10422256;28;20033;-80
2022/07/19 10:41:38;;;;;;;3.75;2.78;;;;;;;42.16;19.78;101519.06;10421327;28;20409;-80
2022/07/19 10:46:38;;;;;;;2.20;2.10;;;;;;;42.07;18.69;101516.56;10420692;28;20198;-81
2022/07/19 10:51:39;;;;;;;7.33;3.07;;;;;;;41.67;18.09;101515.50;10404738;28;20033;-80
2022/07/19 10:56:56;;;;;;;13.65;2.97;;;;;;;42.05;18.90;101493.38;10423422;28;20313;-81
2022/07/19 11:01:56;;;;;;;5.53;2.28;;;;;;;42.43;20.54;101489.06;10402732;28;20045;-81
2022/07/19 11:07:16;;;;;;;2.15;2.05;;;;;;;42.52;18.42;101487.88;10402703;28;20112;-80
2022/07/19 11:12:35;;;;;;;1.63;1.52;;;;;;;42.12;18.47;101490.59;10421983;28;20040;-81
2022/07/19 11:17:36;;;;;;;2.28;2.15;;;;;;;41.69;19.13;101478.97;10422745;28;20084;-81
2022/07/19 11:22:39;;;;;;;3.17;2.40;;;;;;;41.49;18.35;101483.34;10420097;28;20036;-80
2022/07/19 11:27:41;;;;;;;2.58;2.38;;;;;;;41.36;18.47;101477.94;10420021;28;20263;-80
2022/07/19 11:32:42;;;;;;;8.10;2.50;;;;;;;41.59;19.50;101465.50;10420318;28;20083;-81
2022/07/19 11:37:43;;;;;;;14.25;2.13;;;;;;;41.73;18.30;101461.94;10420209;28;20388;-80
2022/07/19 11:42:46;;;;;;;9.48;3.35;;;;;;;41.51;17.62;101466.69;10418974;28;20029;-81
2022/07/19 11:47:49;;;;;;;3.58;2.28;;;;;;;41.47;18.96;101451.63;10418832;28;20461;-81
2022/07/19 11:52:51;;;;;;;6.03;2.63;;;;;;;42.07;18.80;101431.22;10419209;28;20402;-80
2022/07/19 11:57:52;;;;;;;3.20;2.70;;;;;;;42.24;17.63;101435.31;10418976;28;20048;-80
2022/07/19 12:03:04;;;;;;;2.72;2.53;;;;;;;41.99;17.96;101426.72;10418008;28;20049;-81
2022/07/19 12:08:06;;;;;;;2.50;2.30;;;;;;;41.41;17.43;101427.59;10419971;28;20514;-80
2022/07/19 12:13:09;;;;;;;3.33;2.40;;;;;;;41.70;18.17;101418.03;10420263;28;20043;-81
2022/07/19 12:18:09;;;;;;;2.85;2.65;;;;;;;41.97;18.65;101421.44;10433986;28;20030;-79
2022/07/19 12:23:14;;;;;;;6.27;2.63;;;;;;;41.69;17.92;101416.41;10434138;28;20426;-80
2022/07/19 12:28:15;;;;;;;3.22;2.97;;;;;;;41.55;18.02;101414.31;10417736;28;20310;-80
2022/07/19 12:33:15;;;;;;;3.67;2.20;;;;;;;41.77;18.39;101403.03;10415642;28;20081;-80
2022/07/19 12:38:15;;;;;;;12.33;4.37;;;;;;;41.79;18.78;101375.81;10416731;28;20758;-80
2022/07/19 12:43:16;;;;;;;5.45;3.17;;;;;;;41.72;18.27;101367.25;10417272;28;20286;-80
2022/07/19 12:48:16;;;;;;;3.15;2.95;;;;;;;41.72;18.38;101374.97;10420572;28;20033;-81
2022/07/19 12:53:18;;;;;;;8.18;2.28;;;;;;;41.87;18.29;101373.03;10416402;28;20026;-80
2022/07/19 13:03:41;;;;;;;3.35;3.10;;;;;;;41.38;17.75;101372.34;10388241;28;20053;-80
2022/07/19 13:08:41;;;;;;;3.75;2.85;;;;;;;41.59;17.40;101363.16;10439707;28;20046;-79
2022/07/19 13:13:42;;;;;;;3.93;2.87;;;;;;;41.17;18.13;101360.91;10424401;28;20037;-80
2022/07/19 13:18:42;;;;;;;7.00;2.50;;;;;;;41.26;17.75;101347.97;10423964;28;20271;-80
2022/07/19 13:23:44;;;;;;;3.25;2.97;;;;;;;41.39;18.31;101350.44;10424049;28;20773;-81
2022/07/19 13:28:45;;;;;;;8.50;3.83;;;;;;;41.74;18.18;101336.41;10423365;28;20041;-80
2022/07/19 13:33:46;;;;;;;4.00;3.50;;;;;;;41.69;18.09;101318.91;10424690;28;20424;-80
2022/07/19 13:38:47;;;;;;;2.83;2.63;;;;;;;41.27;17.25;101324.00;10423753;28;20496;-80
2022/07/19 13:43:48;;;;;;;2.92;2.65;;;;;;;41.26;17.15;101321.53;10422873;28;20030;-80
2022/07/19 13:48:48;;;;;;;2.70;2.33;;;;;;;41.04;16.90;101317.78;10438542;28;20037;-80
2022/07/19 13:53:49;;;;;;;3.47;2.70;;;;;;;40.96;17.40;101310.41;10424303;28;20326;-80
2022/07/19 13:58:49;;;;;;;7.47;2.92;;;;;;;41.01;16.90;101307.19;10421720;28;20026;-79
2022/07/19 14:03:50;;;;;;;2.42;2.30;;;;;;;41.10;17.43;101310.50;10423563;28;20139;-79
2022/07/19 14:08:50;;;;;;;3.53;2.55;;;;;;;41.10;16.42;101299.13;10424209;28;20073;-80
2022/07/19 14:13:51;;;;;;;2.72;2.53;;;;;;;40.88;18.04;101293.31;10422431;28;20040;-79
2022/07/19 14:18:52;;;;;;;3.58;3.03;;;;;;;41.04;18.31;101290.19;10422824;28;20041;-80
2022/07/19 14:23:52;;;;;;;4.33;2.50;;;;;;;41.07;18.43;101291.44;10406525;28;20025;-80
2022/07/19 14:28:52;;;;;;;3.03;2.83;;;;;;;40.88;17.52;101275.47;10425136;28;20275;-81
2022/07/19 14:33:53;;;;;;;2.70;2.50;;;;;;;40.43;17.88;101272.72;10425092;28;20707;-80
2022/07/19 14:38:53;;;;;;;2.95;2.67;;;;;;;40.38;17.39;101260.91;10423965;28;20342;-78
2022/07/19 14:43:55;;;;;;;2.90;2.70;;;;;;;40.29;17.50;101261.22;10423433;28;20025;-80
2022/07/19 14:48:55;;;;;;;2.72;2.45;;;;;;;40.15;17.92;101253.41;10421606;28;20037;-80
2022/07/19 14:53:57;;;;;;;4.32;3.03;;;;;;;40.02;18.18;101242.75;10422205;28;20471;-81
2022/07/19 14:58:57;;;;;;;2.70;2.50;;;;;;;39.90;18.70;101238.97;10420453;28;20044;-80
2022/07/19 15:03:57;;;;;;;3.53;3.23;;;;;;;39.69;18.87;101231.03;10421142;28;20366;-80
2022/07/19 15:08:58;;;;;;;3.92;3.22;;;;;;;39.39;20.21;101231.13;10403002;28;20290;-80
2022/07/19 15:13:59;;;;;;;5.97;4.17;;;;;;;39.27;19.79;101215.19;10419830;28;20090;-80
2022/07/19 15:18:59;;;;;;;9.00;3.83;;;;;;;39.38;20.78;101221.00;10401969;28;20255;-80
2022/07/19 15:24:00;;;;;;;3.95;3.65;;;;;;;39.15;20.77;101215.44;10419452;28;20040;-80
2022/07/19 15:29:00;;;;;;;3.60;3.15;;;;;;;39.15;20.80;101225.94;10418797;28;20025;-80
2022/07/19 15:34:01;;;;;;;7.40;3.58;;;;;;;38.84;20.71;101214.66;10419619;28;20025;-80
2022/07/19 15:39:02;;;;;;;3.65;3.10;;;;;;;38.89;20.21;101204.97;10400759;28;20038;-79
2022/07/19 15:44:02;;;;;;;4.85;3.50;;;;;;;39.05;20.37;101188.59;10418003;28;20036;-80
2022/07/19 15:49:03;;;;;;;8.15;3.38;;;;;;;38.94;20.27;101189.69;10418157;28;20044;-80
2022/07/19 15:54:05;;;;;;;3.13;2.95;;;;;;;38.52;21.86;101187.88;10418045;28;20049;-79
2022/07/19 15:59:05;;;;;;;4.35;3.65;;;;;;;38.08;22.47;101177.06;10416295;28;20029;-79
2022/07/19 16:04:06;;;;;;;10.95;3.22;;;;;;;37.94;22.07;101163.53;10415513;28;20033;-79
2022/07/19 16:09:06;;;;;;;4.37;3.10;;;;;;;37.94;23.22;101169.19;10417118;28;20034;-79
2022/07/19 16:14:06;;;;;;;13.13;4.00;;;;;;;37.82;23.41;101161.66;10400463;28;20278;-79
2022/07/19 16:19:08;;;;;;;6.30;3.23;;;;;;;37.45;22.79;101152.94;10417683;28;20033;-79
2022/07/19 16:24:08;;;;;;;4.47;3.08;;;;;;;37.43;23.26;101144.81;10415871;28;20289;-80
2022/07/19 16:29:10;;;;;;;9.93;3.78;;;;;;;37.04;22.45;101149.69;10416797;28;20082;-80
2022/07/19 16:34:10;;;;;;;9.25;3.42;;;;;;;36.64;22.78;101147.22;10417190;28;20034;-79
2022/07/19 16:39:11;;;;;;;6.32;3.60;;;;;;;36.38;22.84;101133.69;10414197;28;20478;-79
2022/07/19 16:44:11;;;;;;;3.33;3.03;;;;;;;36.15;23.81;101137.19;10414863;28;20047;-79
2022/07/19 16:49:12;;;;;;;2.50;2.37;;;;;;;35.92;23.80;101130.56;10416660;28;20041;-79
2022/07/19 16:54:12;;;;;;;8.98;3.72;;;;;;;35.65;24.82;101113.41;10397351;28;20362;-79
2022/07/19 16:59:13;;;;;;;5.17;3.73;;;;;;;35.59;24.93;101120.47;10415611;28;20034;-79
2022/07/19 17:04:13;;;;;;;15.15;4.00;;;;;;;35.60;25.23;101122.09;10414623;28;20752;-80
2022/07/19 17:09:13;;;;;;;9.53;3.50;;;;;;;35.50;25.63;101133.88;10415422;28;20037;-80
2022/07/19 17:14:14;;;;;;;9.95;4.07;;;;;;;35.45;25.39;101131.31;10415836;28;20345;-79
2022/07/19 17:19:15;;;;;;;2.92;2.72;;;;;;;35.43;25.38;101122.44;10402376;28;20116;-79
2022/07/19 17:24:15;;;;;;;13.25;4.35;;;;;;;35.39;25.66;101113.91;10418816;28;20069;-79
2022/07/19 17:29:15;;;;;;;7.00;3.53;;;;;;;35.26;26.05;101117.94;10398045;28;20120;-80
2022/07/19 17:34:16;;;;;;;17.70;3.17;;;;;;;35.18;25.46;101114.94;10415485;28;20492;-79
2022/07/19 17:39:16;;;;;;;4.80;3.90;;;;;;;35.06;26.13;101109.38;10397398;28;20065;-80
2022/07/19 17:44:18;;;;;;;8.07;3.58;;;;;;;35.11;25.92;101105.50;10414103;28;20040;-80
2022/07/19 17:49:18;;;;;;;8.50;3.30;;;;;;;35.01;25.94;101111.63;10414993;28;20034;-79
2022/07/19 17:54:19;;;;;;;11.02;3.55;;;;;;;34.93;26.00;101100.13;10421423;28;20048;-79
2022/07/19 17:59:19;;;;;;;12.95;4.60;;;;;;;34.83;26.28;101099.84;10421833;28;20532;-79
2022/07/19 18:04:20;;;;;;;5.28;3.08;;;;;;;34.76;26.57;101094.00;10422414;28;20041;-79
2022/07/19 18:09:20;;;;;;;3.53;3.22;;;;;;;34.60;27.20;101086.31;10422841;28;20123;-79
2022/07/19 18:14:21;;;;;;;4.88;4.38;;;;;;;34.54;27.32;101095.38;10421259;28;20033;-79
2022/07/19 18:19:21;;;;;;;5.78;3.28;;;;;;;34.44;27.39;101096.66;10420564;28;20334;-78
2022/07/19 18:24:22;;;;;;;6.30;4.05;;;;;;;34.18;28.42;101091.44;10403315;28;20412;-79
2022/07/19 18:29:25;;;;;;;6.80;4.18;;;;;;;34.08;28.08;101092.75;10422164;28;20354;-79
2022/07/19 18:34:25;;;;;;;6.72;4.10;;;;;;;33.85;29.19;101095.16;10402680;28;20037;-80
2022/07/19 18:39:26;;;;;;;9.63;4.05;;;;;;;33.66;29.56;101094.91;10420543;28;20033;-75
2022/07/19 18:44:27;;;;;;;6.85;4.32;;;;;;;33.48;30.30;101095.13;10420854;28;20025;-79
2022/07/19 18:49:28;;;;;;;7.32;4.47;;;;;;;33.31;30.51;101095.31;10422087;28;20069;-82
2022/07/19 18:54:29;;;;;;;6.65;3.85;;;;;;;33.01;31.57;101089.84;10421064;28;20525;-80
2022/07/19 18:59:29;;;;;;;3.97;3.58;;;;;;;32.95;31.23;101090.38;10420145;28;20049;-79
2022/07/19 19:04:30;;;;;;;4.03;3.40;;;;;;;32.72;31.59;101099.16;10418627;28;20068;-80
2022/07/19 19:09:34;;;;;;;3.30;3.05;;;;;;;32.53;31.84;101094.03;10427827;28;20063;-82
2022/07/19 19:14:34;;;;;;;3.17;2.97;;;;;;;32.36;31.91;101089.38;10401520;28;20415;-78
2022/07/19 19:19:35;;;;;;;3.47;3.17;;;;;;;32.18;31.98;101085.84;10418888;28;20112;-81
2022/07/19 19:24:35;;;;;;;4.15;3.85;;;;;;;31.90;32.87;101088.31;10417854;28;20531;-76
2022/07/19 19:29:36;;;;;;;11.95;3.42;;;;;;;31.76;32.80;101095.28;10419393;28;20038;-76
2022/07/19 19:34:36;;;;;;;11.65;3.50;;;;;;;31.55;32.70;101098.00;10419014;28;20413;-76
2022/07/19 19:39:36;;;;;;;5.55;3.45;;;;;;;31.36;33.40;101092.78;10401098;28;20037;-80
2022/07/19 19:44:37;;;;;;;10.13;3.58;;;;;;;31.18;33.33;101092.00;10417808;28;20037;-77
2022/07/19 19:49:37;;;;;;;11.02;3.42;;;;;;;30.99;32.76;101092.38;10400087;28;20053;-79
2022/07/19 19:54:38;;;;;;;5.95;3.42;;;;;;;30.86;32.91;101097.00;10399942;28;20038;-82
2022/07/19 19:59:39;;;;;;;5.13;3.88;;;;;;;30.70;32.70;101093.84;10419973;28;20094;-77
2022/07/19 20:04:39;;;;;;;8.38;2.80;;;;;;;30.46;32.46;101097.09;10415949;28;20040;-80
2022/07/19 20:09:40;;;;;;;3.95;3.40;;;;;;;30.26;32.30;101101.34;10418358;28;20034;-80
2022/07/19 20:14:40;;;;;;;3.05;2.85;;;;;;;30.00;32.76;101089.28;10402735;28;20466;-82
2022/07/19 20:19:41;;;;;;;3.97;3.63;;;;;;;29.82;32.95;101093.97;10418366;28;20487;-79
2022/07/19 20:24:41;;;;;;;3.85;3.47;;;;;;;29.63;32.35;101100.63;10418252;28;20064;-80
2022/07/19 20:29:42;;;;;;;4.10;3.72;;;;;;;29.43;32.89;101093.59;10420457;28;20057;-81
2022/07/19 20:34:42;;;;;;;6.75;4.07;;;;;;;29.30;32.34;101097.31;10416446;28;20384;-80
2022/07/19 20:39:42;;;;;;;5.55;3.67;;;;;;;29.06;32.50;101086.50;10415627;28;20045;-79
2022/07/19 20:44:43;;;;;;;4.82;3.45;;;;;;;28.87;32.17;101103.38;10416843;28;20076;-80
2022/07/19 20:49:43;;;;;;;10.13;3.45;;;;;;;28.61;32.55;101094.81;10415666;28;20077;-80
2022/07/19 20:54:44;;;;;;;5.88;3.67;;;;;;;28.44;32.86;101094.66;10398221;28;20112;-79
2022/07/19 20:59:44;;;;;;;9.98;3.92;;;;;;;28.30;32.48;101094.63;10415290;28;20471;-81
2022/07/19 21:04:45;;;;;;;9.25;3.10;;;;;;;28.08;32.84;101098.22;10415845;28;20350;-82
2022/07/19 21:09:45;;;;;;;5.10;4.60;;;;;;;27.96;33.34;101097.91;10397752;28;20116;-80
2022/07/19 21:14:47;;;;;;;10.52;4.05;;;;;;;27.85;33.10;101091.69;10414749;28;20041;-83
2022/07/19 21:19:47;;;;;;;4.57;4.13;;;;;;;27.80;34.04;101086.25;10414608;28;20389;-81
2022/07/19 21:24:48;;;;;;;4.55;4.15;;;;;;;27.79;34.64;101081.81;10417394;28;20033;-81
2022/07/19 21:29:48;;;;;;;5.85;3.50;;;;;;;27.78;34.86;101080.97;10424765;28;20221;-77
2022/07/19 21:34:49;;;;;;;3.50;3.20;;;;;;;27.76;34.38;101072.09;10423058;28;20537;-78
2022/07/19 21:39:49;;;;;;;4.38;2.78;;;;;;;27.76;34.08;101074.03;10423024;28;20493;-78
2022/07/19 21:44:50;;;;;;;6.68;3.80;;;;;;;27.77;33.94;101072.97;10421519;28;20129;-78
2022/07/19 21:49:50;;;;;;;4.60;4.20;;;;;;;27.73;34.48;101064.38;10421299;28;20045;-78
2022/07/19 21:54:51;;;;;;;3.60;3.25;;;;;;;27.65;35.46;101070.66;10422544;28;20108;-77
2022/07/19 21:59:51;;;;;;;3.35;3.10;;;;;;;27.65;35.17;101070.66;10421454;28;20050;-77
2022/07/19 22:04:52;;;;;;;4.22;3.58;;;;;;;27.66;34.59;101065.91;10421853;28;20112;-77
2022/07/19 22:09:52;;;;;;;3.50;3.17;;;;;;;27.52;35.02;101066.72;10422963;28;20034;-78
2022/07/19 22:14:55;;;;;;;9.82;5.40;;;;;;;27.45;34.75;101071.06;10420990;28;20044;-78
2022/07/19 22:19:55;;;;;;;11.20;3.90;;;;;;;27.37;35.27;101078.13;10404226;28;20040;-77
2022/07/19 22:24:55;;;;;;;4.72;3.45;;;;;;;27.27;35.05;101069.97;10420665;28;20053;-78
2022/07/19 22:29:56;;;;;;;7.00;4.05;;;;;;;27.16;35.19;101068.53;10403442;28;20041;-77
2022/07/19 22:34:56;;;;;;;4.68;3.72;;;;;;;27.07;35.57;101065.59;10420171;28;20148;-77
2022/07/19 22:39:57;;;;;;;3.70;3.40;;;;;;;26.97;34.96;101077.72;10419219;28;20036;-77
2022/07/19 22:44:57;;;;;;;4.68;4.32;;;;;;;26.93;34.88;101081.38;10420568;28;20037;-77
2022/07/19 22:49:58;;;;;;;10.63;5.13;;;;;;;26.80;35.45;101077.41;10421558;28;20065;-77
2022/07/19 22:54:58;;;;;;;9.10;5.05;;;;;;;26.68;34.83;101075.13;10420158;28;20040;-77
2022/07/19 22:59:59;;;;;;;7.05;5.10;;;;;;;26.53;34.99;101078.13;10420166;28;20133;-77
2022/07/19 23:05:00;;;;;;;6.18;4.45;;;;;;;26.32;35.78;101072.81;10420586;28;20041;-77